sensor_id;sensor_type;location;lat;lon;timestamp;P1;durP1;ratioP1;P2;durP2;ratioP2
84031;SDS011;74113;46.556;24.570;2024-02-16T00:02:23;11.00;;;4.70;;
84031;SDS011;74113;46.556;24.570;2024-02-16T00:04:52;9.60;;;5.30;;
84031;SDS011;74113;46.556;24.570;2024-02-16T00:07:22;7.70;;;4.40;;
84031;SDS011;74113;46.556;24.570;2024-02-16T00:09:51;10.60;;;4.90;;
84031;SDS011;74113;46.556;24.570;2024-02-16T00:14:48;10.20;;;4.40;;
84031;SDS011;74113;46.556;24.570;2024-02-16T00:17:16;8.70;;;4.00;;
84031;SDS011;74113;46.556;24.570;2024-02-16T00:19:46;8.90;;;4.20;;
84031;SDS011;74113;46.556;24.570;2024-02-16T00:22:14;9.40;;;6.30;;
84031;SDS011;74113;46.556;24.570;2024-02-16T00:24:43;10.40;;;4.30;;
84031;SDS011;74113;46.556;24.570;2024-02-16T00:27:12;7.80;;;3.50;;
84031;SDS011;74113;46.556;24.570;2024-02-16T00:29:42;9.30;;;3.20;;
84031;SDS011;74113;46.556;24.570;2024-02-16T00:32:12;8.40;;;4.50;;
84031;SDS011;74113;46.556;24.570;2024-02-16T00:34:41;8.50;;;3.30;;
84031;SDS011;74113;46.556;24.570;2024-02-16T00:37:10;9.40;;;4.70;;
84031;SDS011;74113;46.556;24.570;2024-02-16T00:39:40;9.40;;;4.00;;
84031;SDS011;74113;46.556;24.570;2024-02-16T00:42:09;9.20;;;4.90;;
84031;SDS011;74113;46.556;24.570;2024-02-16T00:44:39;8.70;;;4.30;;
84031;SDS011;74113;46.556;24.570;2024-02-16T00:47:08;9.30;;;3.90;;
84031;SDS011;74113;46.556;24.570;2024-02-16T00:49:38;9.30;;;4.40;;
84031;SDS011;74113;46.556;24.570;2024-02-16T00:52:07;9.70;;;4.40;;
84031;SDS011;74113;46.556;24.570;2024-02-16T00:54:38;8.80;;;4.10;;
84031;SDS011;74113;46.556;24.570;2024-02-16T00:59:35;9.50;;;4.00;;
84031;SDS011;74113;46.556;24.570;2024-02-16T01:02:04;11.20;;;4.90;;
84031;SDS011;74113;46.556;24.570;2024-02-16T01:04:33;10.90;;;4.90;;
84031;SDS011;74113;46.556;24.570;2024-02-16T01:07:02;11.40;;;5.10;;
84031;SDS011;74113;46.556;24.570;2024-02-16T01:09:31;7.00;;;3.40;;
84031;SDS011;74113;46.556;24.570;2024-02-16T01:12:00;9.50;;;4.30;;
84031;SDS011;74113;46.556;24.570;2024-02-16T01:14:29;9.40;;;4.90;;
84031;SDS011;74113;46.556;24.570;2024-02-16T01:16:58;9.20;;;4.90;;
84031;SDS011;74113;46.556;24.570;2024-02-16T01:19:27;11.30;;;5.30;;
84031;SDS011;74113;46.556;24.570;2024-02-16T01:21:56;10.70;;;5.00;;
84031;SDS011;74113;46.556;24.570;2024-02-16T01:24:27;8.70;;;4.60;;
84031;SDS011;74113;46.556;24.570;2024-02-16T01:26:56;9.40;;;5.80;;
84031;SDS011;74113;46.556;24.570;2024-02-16T01:29:25;11.70;;;5.20;;
84031;SDS011;74113;46.556;24.570;2024-02-16T01:34:22;9.10;;;3.70;;
84031;SDS011;74113;46.556;24.570;2024-02-16T01:36:51;11.90;;;5.30;;
84031;SDS011;74113;46.556;24.570;2024-02-16T01:39:20;13.60;;;4.80;;
84031;SDS011;74113;46.556;24.570;2024-02-16T01:41:49;11.60;;;4.40;;
84031;SDS011;74113;46.556;24.570;2024-02-16T01:44:18;11.00;;;6.60;;
84031;SDS011;74113;46.556;24.570;2024-02-16T01:46:47;13.00;;;7.10;;
84031;SDS011;74113;46.556;24.570;2024-02-16T01:49:16;13.30;;;5.80;;
84031;SDS011;74113;46.556;24.570;2024-02-16T01:51:45;15.30;;;7.40;;
84031;SDS011;74113;46.556;24.570;2024-02-16T01:54:15;14.10;;;6.40;;
84031;SDS011;74113;46.556;24.570;2024-02-16T01:56:46;14.90;;;7.00;;
84031;SDS011;74113;46.556;24.570;2024-02-16T01:59:16;16.70;;;7.50;;
84031;SDS011;74113;46.556;24.570;2024-02-16T02:01:45;14.50;;;6.80;;
84031;SDS011;74113;46.556;24.570;2024-02-16T02:06:44;13.30;;;5.50;;
84031;SDS011;74113;46.556;24.570;2024-02-16T02:09:13;13.40;;;6.60;;
84031;SDS011;74113;46.556;24.570;2024-02-16T02:11:42;13.00;;;6.20;;
84031;SDS011;74113;46.556;24.570;2024-02-16T02:14:11;15.20;;;8.80;;
84031;SDS011;74113;46.556;24.570;2024-02-16T02:19:22;15.30;;;6.40;;
84031;SDS011;74113;46.556;24.570;2024-02-16T02:24:20;15.20;;;6.50;;
84031;SDS011;74113;46.556;24.570;2024-02-16T02:26:50;20.20;;;7.40;;
84031;SDS011;74113;46.556;24.570;2024-02-16T02:29:19;17.30;;;8.50;;
84031;SDS011;74113;46.556;24.570;2024-02-16T02:31:48;19.30;;;8.50;;
84031;SDS011;74113;46.556;24.570;2024-02-16T02:34:17;21.10;;;8.70;;
84031;SDS011;74113;46.556;24.570;2024-02-16T02:36:46;21.90;;;9.00;;
84031;SDS011;74113;46.556;24.570;2024-02-16T02:39:15;23.60;;;10.20;;
84031;SDS011;74113;46.556;24.570;2024-02-16T02:41:44;22.00;;;9.30;;
84031;SDS011;74113;46.556;24.570;2024-02-16T02:44:13;19.00;;;8.70;;
84031;SDS011;74113;46.556;24.570;2024-02-16T02:49:10;17.70;;;7.10;;
84031;SDS011;74113;46.556;24.570;2024-02-16T02:51:39;25.90;;;10.10;;
84031;SDS011;74113;46.556;24.570;2024-02-16T02:54:08;22.80;;;11.60;;
84031;SDS011;74113;46.556;24.570;2024-02-16T02:56:36;16.00;;;7.60;;
84031;SDS011;74113;46.556;24.570;2024-02-16T02:59:05;20.50;;;8.10;;
84031;SDS011;74113;46.556;24.570;2024-02-16T03:01:34;16.60;;;6.50;;
84031;SDS011;74113;46.556;24.570;2024-02-16T03:04:04;19.60;;;6.90;;
84031;SDS011;74113;46.556;24.570;2024-02-16T03:06:33;13.00;;;5.00;;
84031;SDS011;74113;46.556;24.570;2024-02-16T03:09:02;9.40;;;4.10;;
84031;SDS011;74113;46.556;24.570;2024-02-16T03:11:30;9.80;;;4.10;;
84031;SDS011;74113;46.556;24.570;2024-02-16T03:13:59;8.20;;;3.70;;
84031;SDS011;74113;46.556;24.570;2024-02-16T03:16:28;10.90;;;7.70;;
84031;SDS011;74113;46.556;24.570;2024-02-16T03:18:57;6.80;;;3.40;;
84031;SDS011;74113;46.556;24.570;2024-02-16T03:21:26;8.50;;;3.60;;
84031;SDS011;74113;46.556;24.570;2024-02-16T03:23:55;7.10;;;3.60;;
84031;SDS011;74113;46.556;24.570;2024-02-16T03:26:24;8.10;;;5.80;;
84031;SDS011;74113;46.556;24.570;2024-02-16T03:28:53;8.20;;;3.50;;
84031;SDS011;74113;46.556;24.570;2024-02-16T03:31:22;9.00;;;4.70;;
84031;SDS011;74113;46.556;24.570;2024-02-16T03:33:52;8.60;;;3.70;;
84031;SDS011;74113;46.556;24.570;2024-02-16T03:36:21;7.90;;;3.50;;
84031;SDS011;74113;46.556;24.570;2024-02-16T03:38:50;8.20;;;4.10;;
84031;SDS011;74113;46.556;24.570;2024-02-16T03:41:21;8.90;;;5.10;;
84031;SDS011;74113;46.556;24.570;2024-02-16T03:43:51;5.60;;;2.90;;
84031;SDS011;74113;46.556;24.570;2024-02-16T03:46:21;5.30;;;3.40;;
84031;SDS011;74113;46.556;24.570;2024-02-16T03:48:50;8.50;;;3.80;;
84031;SDS011;74113;46.556;24.570;2024-02-16T03:51:19;7.50;;;3.00;;
84031;SDS011;74113;46.556;24.570;2024-02-16T03:56:20;12.30;;;7.40;;
84031;SDS011;74113;46.556;24.570;2024-02-16T03:58:49;10.40;;;4.70;;
84031;SDS011;74113;46.556;24.570;2024-02-16T04:01:18;9.80;;;5.00;;
84031;SDS011;74113;46.556;24.570;2024-02-16T04:03:47;7.00;;;3.80;;
84031;SDS011;74113;46.556;24.570;2024-02-16T04:06:15;6.00;;;3.00;;
84031;SDS011;74113;46.556;24.570;2024-02-16T04:08:44;8.20;;;4.30;;
84031;SDS011;74113;46.556;24.570;2024-02-16T04:11:13;7.10;;;3.30;;
84031;SDS011;74113;46.556;24.570;2024-02-16T04:13:43;8.70;;;4.10;;
84031;SDS011;74113;46.556;24.570;2024-02-16T04:16:13;8.30;;;3.40;;
84031;SDS011;74113;46.556;24.570;2024-02-16T04:18:42;5.40;;;2.40;;
84031;SDS011;74113;46.556;24.570;2024-02-16T04:21:11;11.20;;;4.80;;
84031;SDS011;74113;46.556;24.570;2024-02-16T04:23:39;7.30;;;3.20;;
84031;SDS011;74113;46.556;24.570;2024-02-16T04:26:09;6.50;;;3.50;;
84031;SDS011;74113;46.556;24.570;2024-02-16T04:28:39;9.60;;;3.20;;
84031;SDS011;74113;46.556;24.570;2024-02-16T04:31:08;7.00;;;2.90;;
84031;SDS011;74113;46.556;24.570;2024-02-16T04:33:38;7.20;;;3.40;;
84031;SDS011;74113;46.556;24.570;2024-02-16T04:36:07;8.50;;;3.50;;
84031;SDS011;74113;46.556;24.570;2024-02-16T04:38:36;9.40;;;4.10;;
84031;SDS011;74113;46.556;24.570;2024-02-16T04:41:06;9.30;;;4.10;;
84031;SDS011;74113;46.556;24.570;2024-02-16T04:43:35;8.90;;;4.70;;
84031;SDS011;74113;46.556;24.570;2024-02-16T04:46:04;12.80;;;4.30;;
84031;SDS011;74113;46.556;24.570;2024-02-16T04:48:33;9.60;;;4.20;;
84031;SDS011;74113;46.556;24.570;2024-02-16T04:51:02;7.30;;;6.10;;
84031;SDS011;74113;46.556;24.570;2024-02-16T04:53:31;10.60;;;3.30;;
84031;SDS011;74113;46.556;24.570;2024-02-16T04:56:00;7.40;;;3.50;;
84031;SDS011;74113;46.556;24.570;2024-02-16T04:58:31;11.20;;;5.70;;
84031;SDS011;74113;46.556;24.570;2024-02-16T05:01:00;8.60;;;4.60;;
84031;SDS011;74113;46.556;24.570;2024-02-16T05:03:29;7.70;;;3.80;;
84031;SDS011;74113;46.556;24.570;2024-02-16T05:06:01;10.90;;;3.80;;
84031;SDS011;74113;46.556;24.570;2024-02-16T05:08:31;7.90;;;4.50;;
84031;SDS011;74113;46.556;24.570;2024-02-16T05:11:00;7.30;;;3.60;;
84031;SDS011;74113;46.556;24.570;2024-02-16T05:13:31;6.90;;;3.40;;
84031;SDS011;74113;46.556;24.570;2024-02-16T05:16:01;8.70;;;4.30;;
84031;SDS011;74113;46.556;24.570;2024-02-16T05:18:30;11.00;;;5.40;;
84031;SDS011;74113;46.556;24.570;2024-02-16T05:20:59;9.50;;;4.70;;
84031;SDS011;74113;46.556;24.570;2024-02-16T05:23:29;9.20;;;4.00;;
84031;SDS011;74113;46.556;24.570;2024-02-16T05:25:57;8.60;;;3.80;;
84031;SDS011;74113;46.556;24.570;2024-02-16T05:28:27;11.70;;;4.70;;
84031;SDS011;74113;46.556;24.570;2024-02-16T05:30:57;7.90;;;3.60;;
84031;SDS011;74113;46.556;24.570;2024-02-16T05:33:31;9.80;;;4.30;;
84031;SDS011;74113;46.556;24.570;2024-02-16T05:36:02;11.80;;;3.70;;
84031;SDS011;74113;46.556;24.570;2024-02-16T05:38:33;10.10;;;4.20;;
84031;SDS011;74113;46.556;24.570;2024-02-16T05:41:09;16.80;;;5.40;;
84031;SDS011;74113;46.556;24.570;2024-02-16T05:43:42;12.10;;;5.70;;
84031;SDS011;74113;46.556;24.570;2024-02-16T05:46:12;17.80;;;6.10;;
84031;SDS011;74113;46.556;24.570;2024-02-16T05:48:43;14.10;;;5.20;;
84031;SDS011;74113;46.556;24.570;2024-02-16T05:51:14;9.70;;;4.80;;
84031;SDS011;74113;46.556;24.570;2024-02-16T05:53:45;14.20;;;6.40;;
84031;SDS011;74113;46.556;24.570;2024-02-16T05:56:22;13.80;;;6.50;;
84031;SDS011;74113;46.556;24.570;2024-02-16T05:58:52;13.40;;;6.50;;
84031;SDS011;74113;46.556;24.570;2024-02-16T06:01:26;16.00;;;6.30;;
84031;SDS011;74113;46.556;24.570;2024-02-16T06:04:00;7.60;;;3.80;;
84031;SDS011;74113;46.556;24.570;2024-02-16T06:06:31;9.50;;;3.90;;
84031;SDS011;74113;46.556;24.570;2024-02-16T06:09:11;11.00;;;5.10;;
84031;SDS011;74113;46.556;24.570;2024-02-16T06:11:44;8.80;;;4.20;;
84031;SDS011;74113;46.556;24.570;2024-02-16T06:14:17;9.70;;;4.80;;
84031;SDS011;74113;46.556;24.570;2024-02-16T06:16:49;10.40;;;5.00;;
84031;SDS011;74113;46.556;24.570;2024-02-16T06:19:22;12.20;;;6.60;;
84031;SDS011;74113;46.556;24.570;2024-02-16T06:21:53;7.30;;;3.40;;
84031;SDS011;74113;46.556;24.570;2024-02-16T06:24:24;7.70;;;3.50;;
84031;SDS011;74113;46.556;24.570;2024-02-16T06:26:55;9.80;;;4.40;;
84031;SDS011;74113;46.556;24.570;2024-02-16T06:29:27;13.40;;;6.50;;
84031;SDS011;74113;46.556;24.570;2024-02-16T06:31:57;8.20;;;3.80;;
84031;SDS011;74113;46.556;24.570;2024-02-16T06:34:28;10.20;;;4.20;;
84031;SDS011;74113;46.556;24.570;2024-02-16T06:36:57;7.90;;;3.50;;
84031;SDS011;74113;46.556;24.570;2024-02-16T06:39:26;9.90;;;5.00;;
84031;SDS011;74113;46.556;24.570;2024-02-16T06:41:57;7.90;;;3.50;;
84031;SDS011;74113;46.556;24.570;2024-02-16T06:44:30;9.80;;;4.50;;
84031;SDS011;74113;46.556;24.570;2024-02-16T06:47:00;10.20;;;6.40;;
84031;SDS011;74113;46.556;24.570;2024-02-16T06:49:30;9.40;;;4.30;;
84031;SDS011;74113;46.556;24.570;2024-02-16T06:52:04;12.00;;;5.70;;
84031;SDS011;74113;46.556;24.570;2024-02-16T06:54:36;10.50;;;5.20;;
84031;SDS011;74113;46.556;24.570;2024-02-16T06:57:13;9.70;;;4.90;;
84031;SDS011;74113;46.556;24.570;2024-02-16T06:59:57;13.80;;;6.60;;
84031;SDS011;74113;46.556;24.570;2024-02-16T07:02:30;11.80;;;5.80;;
84031;SDS011;74113;46.556;24.570;2024-02-16T07:05:48;18.90;;;7.90;;
84031;SDS011;74113;46.556;24.570;2024-02-16T07:08:24;16.60;;;6.40;;
84031;SDS011;74113;46.556;24.570;2024-02-16T07:10:55;11.30;;;5.00;;
84031;SDS011;74113;46.556;24.570;2024-02-16T07:13:25;16.30;;;8.20;;
84031;SDS011;74113;46.556;24.570;2024-02-16T07:15:57;15.00;;;7.40;;
84031;SDS011;74113;46.556;24.570;2024-02-16T07:18:27;14.60;;;6.20;;
84031;SDS011;74113;46.556;24.570;2024-02-16T07:20:59;10.10;;;5.00;;
84031;SDS011;74113;46.556;24.570;2024-02-16T07:23:30;10.30;;;5.70;;
84031;SDS011;74113;46.556;24.570;2024-02-16T07:26:02;10.10;;;5.80;;
84031;SDS011;74113;46.556;24.570;2024-02-16T07:28:35;9.40;;;4.00;;
84031;SDS011;74113;46.556;24.570;2024-02-16T07:31:05;12.80;;;5.20;;
84031;SDS011;74113;46.556;24.570;2024-02-16T07:33:36;11.70;;;5.00;;
84031;SDS011;74113;46.556;24.570;2024-02-16T07:36:06;10.30;;;4.90;;
84031;SDS011;74113;46.556;24.570;2024-02-16T07:38:36;15.70;;;7.40;;
84031;SDS011;74113;46.556;24.570;2024-02-16T07:41:06;12.40;;;6.80;;
84031;SDS011;74113;46.556;24.570;2024-02-16T07:43:37;11.80;;;6.30;;
84031;SDS011;74113;46.556;24.570;2024-02-16T07:46:09;14.70;;;6.70;;
84031;SDS011;74113;46.556;24.570;2024-02-16T07:48:38;11.70;;;6.20;;
84031;SDS011;74113;46.556;24.570;2024-02-16T07:51:07;14.70;;;8.60;;
84031;SDS011;74113;46.556;24.570;2024-02-16T07:53:41;11.20;;;6.50;;
84031;SDS011;74113;46.556;24.570;2024-02-16T07:56:15;11.90;;;6.40;;
84031;SDS011;74113;46.556;24.570;2024-02-16T07:58:45;15.10;;;7.80;;
84031;SDS011;74113;46.556;24.570;2024-02-16T08:01:25;14.00;;;7.40;;
84031;SDS011;74113;46.556;24.570;2024-02-16T08:03:56;12.90;;;5.50;;
84031;SDS011;74113;46.556;24.570;2024-02-16T08:06:26;9.50;;;4.90;;
84031;SDS011;74113;46.556;24.570;2024-02-16T08:09:01;10.70;;;4.80;;
84031;SDS011;74113;46.556;24.570;2024-02-16T08:11:34;7.30;;;3.60;;
84031;SDS011;74113;46.556;24.570;2024-02-16T08:14:08;7.60;;;2.80;;
84031;SDS011;74113;46.556;24.570;2024-02-16T08:16:37;12.00;;;5.20;;
84031;SDS011;74113;46.556;24.570;2024-02-16T08:19:08;14.20;;;7.10;;
84031;SDS011;74113;46.556;24.570;2024-02-16T08:21:37;13.80;;;7.80;;
84031;SDS011;74113;46.556;24.570;2024-02-16T08:24:07;12.70;;;6.90;;
84031;SDS011;74113;46.556;24.570;2024-02-16T08:26:36;8.70;;;4.00;;
84031;SDS011;74113;46.556;24.570;2024-02-16T08:29:06;8.50;;;3.80;;
84031;SDS011;74113;46.556;24.570;2024-02-16T08:31:58;10.80;;;4.90;;
84031;SDS011;74113;46.556;24.570;2024-02-16T08:34:27;12.70;;;5.80;;
84031;SDS011;74113;46.556;24.570;2024-02-16T08:36:57;9.60;;;5.30;;
84031;SDS011;74113;46.556;24.570;2024-02-16T08:39:30;11.00;;;4.70;;
84031;SDS011;74113;46.556;24.570;2024-02-16T08:42:02;6.80;;;4.50;;
84031;SDS011;74113;46.556;24.570;2024-02-16T08:44:32;5.80;;;2.70;;
84031;SDS011;74113;46.556;24.570;2024-02-16T08:47:07;6.70;;;3.20;;
84031;SDS011;74113;46.556;24.570;2024-02-16T08:49:37;5.00;;;2.50;;
84031;SDS011;74113;46.556;24.570;2024-02-16T08:52:18;8.10;;;3.80;;
84031;SDS011;74113;46.556;24.570;2024-02-16T08:54:49;8.90;;;4.60;;
84031;SDS011;74113;46.556;24.570;2024-02-16T08:57:19;7.80;;;4.40;;
84031;SDS011;74113;46.556;24.570;2024-02-16T08:59:48;8.90;;;4.20;;
84031;SDS011;74113;46.556;24.570;2024-02-16T09:02:21;6.60;;;3.30;;
84031;SDS011;74113;46.556;24.570;2024-02-16T09:04:59;6.90;;;3.10;;
84031;SDS011;74113;46.556;24.570;2024-02-16T09:07:28;6.70;;;4.10;;
84031;SDS011;74113;46.556;24.570;2024-02-16T09:09:57;5.60;;;2.80;;
84031;SDS011;74113;46.556;24.570;2024-02-16T09:12:34;7.00;;;3.30;;
84031;SDS011;74113;46.556;24.570;2024-02-16T09:15:04;5.40;;;3.00;;
84031;SDS011;74113;46.556;24.570;2024-02-16T09:17:44;3.60;;;1.80;;
84031;SDS011;74113;46.556;24.570;2024-02-16T09:20:15;5.80;;;2.30;;
84031;SDS011;74113;46.556;24.570;2024-02-16T09:22:46;5.20;;;2.10;;
84031;SDS011;74113;46.556;24.570;2024-02-16T09:25:16;4.70;;;2.60;;
84031;SDS011;74113;46.556;24.570;2024-02-16T09:27:46;3.90;;;3.40;;
84031;SDS011;74113;46.556;24.570;2024-02-16T09:30:16;3.60;;;2.10;;
84031;SDS011;74113;46.556;24.570;2024-02-16T09:32:45;5.40;;;2.70;;
84031;SDS011;74113;46.556;24.570;2024-02-16T09:35:14;4.00;;;1.90;;
84031;SDS011;74113;46.556;24.570;2024-02-16T09:37:49;5.70;;;1.80;;
84031;SDS011;74113;46.556;24.570;2024-02-16T09:40:30;8.30;;;3.20;;
84031;SDS011;74113;46.556;24.570;2024-02-16T09:43:01;6.30;;;3.50;;
84031;SDS011;74113;46.556;24.570;2024-02-16T09:45:33;6.80;;;4.90;;
84031;SDS011;74113;46.556;24.570;2024-02-16T09:48:04;11.00;;;5.20;;
84031;SDS011;74113;46.556;24.570;2024-02-16T09:50:38;9.80;;;4.20;;
84031;SDS011;74113;46.556;24.570;2024-02-16T09:53:10;6.60;;;3.60;;
84031;SDS011;74113;46.556;24.570;2024-02-16T09:55:40;7.40;;;3.20;;
84031;SDS011;74113;46.556;24.570;2024-02-16T09:58:17;4.40;;;2.50;;
84031;SDS011;74113;46.556;24.570;2024-02-16T10:00:51;5.10;;;2.50;;
84031;SDS011;74113;46.556;24.570;2024-02-16T10:06:09;6.00;;;4.00;;
84031;SDS011;74113;46.556;24.570;2024-02-16T10:08:48;5.30;;;2.60;;
84031;SDS011;74113;46.556;24.570;2024-02-16T10:11:22;7.00;;;3.50;;
84031;SDS011;74113;46.556;24.570;2024-02-16T10:13:56;7.50;;;4.20;;
84031;SDS011;74113;46.556;24.570;2024-02-16T10:16:28;6.10;;;2.70;;
84031;SDS011;74113;46.556;24.570;2024-02-16T10:19:05;6.50;;;2.80;;
84031;SDS011;74113;46.556;24.570;2024-02-16T10:21:36;5.90;;;3.50;;
84031;SDS011;74113;46.556;24.570;2024-02-16T10:24:06;6.90;;;3.90;;
84031;SDS011;74113;46.556;24.570;2024-02-16T10:26:38;6.40;;;2.90;;
84031;SDS011;74113;46.556;24.570;2024-02-16T10:29:14;5.40;;;2.80;;
84031;SDS011;74113;46.556;24.570;2024-02-16T10:31:51;7.80;;;3.40;;
84031;SDS011;74113;46.556;24.570;2024-02-16T10:34:22;7.90;;;3.70;;
84031;SDS011;74113;46.556;24.570;2024-02-16T10:36:58;7.30;;;4.40;;
84031;SDS011;74113;46.556;24.570;2024-02-16T10:39:30;6.00;;;3.20;;
84031;SDS011;74113;46.556;24.570;2024-02-16T10:42:01;5.10;;;3.20;;
84031;SDS011;74113;46.556;24.570;2024-02-16T10:44:40;6.10;;;4.80;;
84031;SDS011;74113;46.556;24.570;2024-02-16T10:47:16;3.00;;;1.60;;
84031;SDS011;74113;46.556;24.570;2024-02-16T10:49:46;6.90;;;3.20;;
84031;SDS011;74113;46.556;24.570;2024-02-16T10:52:15;6.00;;;2.80;;
84031;SDS011;74113;46.556;24.570;2024-02-16T10:54:47;4.30;;;2.30;;
84031;SDS011;74113;46.556;24.570;2024-02-16T10:57:18;5.70;;;2.70;;
84031;SDS011;74113;46.556;24.570;2024-02-16T11:00:01;4.60;;;1.90;;
84031;SDS011;74113;46.556;24.570;2024-02-16T11:02:57;9.50;;;3.50;;
84031;SDS011;74113;46.556;24.570;2024-02-16T11:05:41;9.60;;;5.00;;
84031;SDS011;74113;46.556;24.570;2024-02-16T11:08:17;5.10;;;2.50;;
84031;SDS011;74113;46.556;24.570;2024-02-16T11:10:54;6.90;;;3.10;;
84031;SDS011;74113;46.556;24.570;2024-02-16T11:13:28;5.60;;;2.50;;
84031;SDS011;74113;46.556;24.570;2024-02-16T11:18:30;3.10;;;1.10;;
84031;SDS011;74113;46.556;24.570;2024-02-16T11:21:01;2.80;;;1.30;;
84031;SDS011;74113;46.556;24.570;2024-02-16T11:23:31;3.60;;;1.50;;
84031;SDS011;74113;46.556;24.570;2024-02-16T11:26:01;3.20;;;1.50;;
84031;SDS011;74113;46.556;24.570;2024-02-16T11:28:31;3.20;;;1.00;;
84031;SDS011;74113;46.556;24.570;2024-02-16T11:31:01;3.60;;;2.60;;
84031;SDS011;74113;46.556;24.570;2024-02-16T11:33:31;3.20;;;1.30;;
84031;SDS011;74113;46.556;24.570;2024-02-16T11:36:01;3.00;;;1.40;;
84031;SDS011;74113;46.556;24.570;2024-02-16T11:38:38;2.80;;;0.70;;
84031;SDS011;74113;46.556;24.570;2024-02-16T11:41:07;2.50;;;1.10;;
84031;SDS011;74113;46.556;24.570;2024-02-16T11:43:37;3.90;;;1.60;;
84031;SDS011;74113;46.556;24.570;2024-02-16T11:46:15;5.20;;;2.90;;
84031;SDS011;74113;46.556;24.570;2024-02-16T11:48:46;3.90;;;1.70;;
84031;SDS011;74113;46.556;24.570;2024-02-16T11:51:17;7.10;;;3.50;;
84031;SDS011;74113;46.556;24.570;2024-02-16T11:53:54;6.40;;;2.20;;
84031;SDS011;74113;46.556;24.570;2024-02-16T11:56:25;3.60;;;2.10;;
84031;SDS011;74113;46.556;24.570;2024-02-16T11:58:55;3.20;;;1.90;;
84031;SDS011;74113;46.556;24.570;2024-02-16T12:01:25;3.20;;;1.60;;
84031;SDS011;74113;46.556;24.570;2024-02-16T12:03:54;2.30;;;1.30;;
84031;SDS011;74113;46.556;24.570;2024-02-16T12:06:24;4.10;;;2.10;;
84031;SDS011;74113;46.556;24.570;2024-02-16T12:08:56;2.90;;;1.50;;
84031;SDS011;74113;46.556;24.570;2024-02-16T12:11:26;4.00;;;2.30;;
84031;SDS011;74113;46.556;24.570;2024-02-16T12:13:58;4.10;;;0.90;;
84031;SDS011;74113;46.556;24.570;2024-02-16T12:16:31;2.90;;;1.70;;
84031;SDS011;74113;46.556;24.570;2024-02-16T12:19:07;3.50;;;2.00;;
84031;SDS011;74113;46.556;24.570;2024-02-16T12:21:38;3.20;;;2.20;;
84031;SDS011;74113;46.556;24.570;2024-02-16T12:24:10;3.60;;;1.30;;
84031;SDS011;74113;46.556;24.570;2024-02-16T12:26:40;3.90;;;1.70;;
84031;SDS011;74113;46.556;24.570;2024-02-16T12:29:10;3.10;;;1.60;;
84031;SDS011;74113;46.556;24.570;2024-02-16T12:31:42;3.30;;;1.40;;
84031;SDS011;74113;46.556;24.570;2024-02-16T12:34:12;2.50;;;1.10;;
84031;SDS011;74113;46.556;24.570;2024-02-16T12:36:42;2.00;;;1.00;;
84031;SDS011;74113;46.556;24.570;2024-02-16T12:39:18;5.30;;;1.60;;
84031;SDS011;74113;46.556;24.570;2024-02-16T12:41:48;2.40;;;1.30;;
84031;SDS011;74113;46.556;24.570;2024-02-16T12:44:19;2.10;;;1.30;;
84031;SDS011;74113;46.556;24.570;2024-02-16T12:46:48;2.40;;;1.50;;
84031;SDS011;74113;46.556;24.570;2024-02-16T12:49:18;2.00;;;0.90;;
84031;SDS011;74113;46.556;24.570;2024-02-16T12:51:53;2.20;;;1.00;;
84031;SDS011;74113;46.556;24.570;2024-02-16T12:54:28;2.90;;;1.50;;
84031;SDS011;74113;46.556;24.570;2024-02-16T12:57:03;2.60;;;1.10;;
84031;SDS011;74113;46.556;24.570;2024-02-16T12:59:34;1.80;;;0.90;;
84031;SDS011;74113;46.556;24.570;2024-02-16T13:02:06;2.80;;;1.10;;
84031;SDS011;74113;46.556;24.570;2024-02-16T13:04:37;2.20;;;1.10;;
84031;SDS011;74113;46.556;24.570;2024-02-16T13:07:09;2.00;;;1.10;;
84031;SDS011;74113;46.556;24.570;2024-02-16T13:09:41;2.40;;;0.90;;
84031;SDS011;74113;46.556;24.570;2024-02-16T13:12:12;2.30;;;1.20;;
84031;SDS011;74113;46.556;24.570;2024-02-16T13:17:15;2.10;;;1.20;;
84031;SDS011;74113;46.556;24.570;2024-02-16T13:19:45;2.90;;;2.70;;
84031;SDS011;74113;46.556;24.570;2024-02-16T13:22:14;2.10;;;1.40;;
84031;SDS011;74113;46.556;24.570;2024-02-16T13:24:43;3.40;;;1.80;;
84031;SDS011;74113;46.556;24.570;2024-02-16T13:27:12;2.90;;;1.10;;
84031;SDS011;74113;46.556;24.570;2024-02-16T13:29:42;3.40;;;1.80;;
84031;SDS011;74113;46.556;24.570;2024-02-16T13:32:12;3.20;;;1.90;;
84031;SDS011;74113;46.556;24.570;2024-02-16T13:34:43;2.30;;;1.00;;
84031;SDS011;74113;46.556;24.570;2024-02-16T13:37:14;1.90;;;1.40;;
84031;SDS011;74113;46.556;24.570;2024-02-16T13:39:43;1.70;;;0.60;;
84031;SDS011;74113;46.556;24.570;2024-02-16T13:42:12;3.10;;;1.20;;
84031;SDS011;74113;46.556;24.570;2024-02-16T13:44:43;3.80;;;1.00;;
84031;SDS011;74113;46.556;24.570;2024-02-16T13:47:16;2.10;;;1.90;;
84031;SDS011;74113;46.556;24.570;2024-02-16T13:49:48;1.90;;;0.80;;
84031;SDS011;74113;46.556;24.570;2024-02-16T13:52:18;2.00;;;0.50;;
84031;SDS011;74113;46.556;24.570;2024-02-16T13:54:47;1.50;;;1.10;;
84031;SDS011;74113;46.556;24.570;2024-02-16T13:57:16;1.30;;;0.90;;
84031;SDS011;74113;46.556;24.570;2024-02-16T13:59:45;2.20;;;1.10;;
84031;SDS011;74113;46.556;24.570;2024-02-16T14:02:14;3.30;;;1.30;;
84031;SDS011;74113;46.556;24.570;2024-02-16T14:04:44;2.40;;;1.20;;
84031;SDS011;74113;46.556;24.570;2024-02-16T14:07:13;3.40;;;0.70;;
84031;SDS011;74113;46.556;24.570;2024-02-16T14:09:42;1.40;;;0.50;;
84031;SDS011;74113;46.556;24.570;2024-02-16T14:12:11;2.30;;;1.70;;
84031;SDS011;74113;46.556;24.570;2024-02-16T14:14:40;1.60;;;0.70;;
84031;SDS011;74113;46.556;24.570;2024-02-16T14:17:09;5.00;;;1.10;;
84031;SDS011;74113;46.556;24.570;2024-02-16T14:19:38;2.10;;;1.10;;
84031;SDS011;74113;46.556;24.570;2024-02-16T14:22:07;1.90;;;1.20;;
84031;SDS011;74113;46.556;24.570;2024-02-16T14:24:40;1.50;;;0.50;;
84031;SDS011;74113;46.556;24.570;2024-02-16T14:27:09;4.10;;;3.80;;
84031;SDS011;74113;46.556;24.570;2024-02-16T14:29:41;2.90;;;1.00;;
84031;SDS011;74113;46.556;24.570;2024-02-16T14:32:11;3.00;;;1.70;;
84031;SDS011;74113;46.556;24.570;2024-02-16T14:34:40;1.60;;;0.60;;
84031;SDS011;74113;46.556;24.570;2024-02-16T14:37:13;1.30;;;0.70;;
84031;SDS011;74113;46.556;24.570;2024-02-16T14:39:43;1.70;;;1.30;;
84031;SDS011;74113;46.556;24.570;2024-02-16T14:42:13;1.60;;;1.00;;
84031;SDS011;74113;46.556;24.570;2024-02-16T14:44:42;1.60;;;1.10;;
84031;SDS011;74113;46.556;24.570;2024-02-16T14:47:12;1.50;;;0.50;;
84031;SDS011;74113;46.556;24.570;2024-02-16T14:49:41;1.60;;;1.00;;
84031;SDS011;74113;46.556;24.570;2024-02-16T14:52:13;1.90;;;0.50;;
84031;SDS011;74113;46.556;24.570;2024-02-16T14:54:43;1.50;;;0.50;;
84031;SDS011;74113;46.556;24.570;2024-02-16T14:57:13;2.70;;;0.80;;
84031;SDS011;74113;46.556;24.570;2024-02-16T14:59:42;1.70;;;0.80;;
84031;SDS011;74113;46.556;24.570;2024-02-16T15:02:12;1.30;;;0.40;;
84031;SDS011;74113;46.556;24.570;2024-02-16T15:04:41;1.40;;;0.50;;
84031;SDS011;74113;46.556;24.570;2024-02-16T15:07:10;1.80;;;1.20;;
84031;SDS011;74113;46.556;24.570;2024-02-16T15:09:39;1.60;;;0.40;;
84031;SDS011;74113;46.556;24.570;2024-02-16T15:12:09;1.50;;;0.40;;
84031;SDS011;74113;46.556;24.570;2024-02-16T15:14:38;1.80;;;0.70;;
84031;SDS011;74113;46.556;24.570;2024-02-16T15:17:08;2.30;;;0.70;;
84031;SDS011;74113;46.556;24.570;2024-02-16T15:19:37;2.30;;;1.60;;
84031;SDS011;74113;46.556;24.570;2024-02-16T15:22:06;2.00;;;1.80;;